Terminal Aerodrome Forecast
Issued by NWS Anchorage, AK

Home | Current Version | Previous Version | Text Only | Print | Product List | Glossary On
Versions: 1 2 3 4 5 6 7 8 9 10 11 12 13 14 15 16 17 18 19 20 21 22 23 24 25 26 27 28 29 30 31 32 33 34
000
FTAK31 PANC 272331
TAFANC
TAF
PANC 272331Z 2800/2906 03006KT P6SM BKN045
     FM280400 02006KT P6SM BKN060
     FM281200 02005KT P6SM VCFG SCT005 BKN120=

USA.gov is the U.S. government's official web portal to all federal, state and local government web resources and services.